Time,TemperatureF,DewpointF,PressureIn,WindDirection,WindDirectionDegrees,WindSpeedMPH,WindSpeedGustMPH,Humidity,HourlyPrecipIn,Conditions,Clouds,dailyrainin,SoftwareType,DateUTC
2013-02-07 00:00:00,26.4,6.9,30.29,West,273,1.0,1.0,43,0.00,,,0.04,Wunderground v.1.15,2013-02-07 05:00:00,
2013-02-07 00:30:00,25.9,7.4,30.29,West,266,1.0,1.0,45,0.00,,,0.00,Wunderground v.1.15,2013-02-07 05:30:00,
2013-02-07 01:00:00,25.2,7.3,30.31,West,259,1.0,1.0,46,0.00,,,0.00,Wunderground v.1.15,2013-02-07 06:00:00,
2013-02-07 01:30:00,24.7,7.3,30.32,West,280,2.0,2.0,47,0.00,,,0.00,Wunderground v.1.15,2013-02-07 06:30:00,
2013-02-07 02:00:00,24.0,6.7,30.33,West,264,3.0,3.0,47,0.00,,,0.00,Wunderground v.1.15,2013-02-07 07:00:00,
2013-02-07 02:30:00,22.7,7.7,30.34,West,263,0.0,0.0,52,0.00,,,0.00,Wunderground v.1.15,2013-02-07 07:30:00,
2013-02-07 03:00:00,21.2,6.3,30.35,WSW,258,0.0,0.0,52,0.00,,,0.00,Wunderground v.1.15,2013-02-07 08:00:00,
2013-02-07 03:30:00,20.3,5.0,30.37,West,259,0.0,0.0,51,0.00,,,0.00,Wunderground v.1.15,2013-02-07 08:30:00,
2013-02-07 04:00:00,19.7,4.5,30.39,WSW,244,0.0,0.0,51,0.00,,,0.00,Wunderground v.1.15,2013-02-07 09:00:00,
2013-02-07 04:30:00,19.0,4.7,30.40,WSW,245,0.0,0.0,53,0.00,,,0.00,Wunderground v.1.15,2013-02-07 09:30:00,
2013-02-07 05:00:00,18.8,4.1,30.40,West,277,0.0,0.0,52,0.00,,,0.00,Wunderground v.1.15,2013-02-07 10:00:00,
2013-02-07 05:30:00,18.7,4.0,30.41,WSW,252,1.0,1.0,52,0.00,,,0.00,Wunderground v.1.15,2013-02-07 10:30:00,
2013-02-07 06:00:00,18.2,3.9,30.42,WNW,287,0.0,0.0,53,0.00,,,0.00,Wunderground v.1.15,2013-02-07 11:00:00,
2013-02-07 06:30:00,18.4,3.7,30.44,West,270,0.0,2.0,52,0.00,,,0.00,Wunderground v.1.15,2013-02-07 11:30:00,
2013-02-07 07:00:00,18.3,2.3,30.45,WSW,257,1.0,1.0,49,0.00,,,0.00,Wunderground v.1.15,2013-02-07 12:00:00,
2013-02-07 07:30:00,18.7,3.5,30.46,West,271,1.0,2.0,51,0.00,,,0.00,Wunderground v.1.15,2013-02-07 12:30:00,
2013-02-07 08:00:00,20.2,4.1,30.48,West,259,2.0,2.0,49,0.00,,,0.00,Wunderground v.1.15,2013-02-07 13:00:00,
2013-02-07 08:30:00,21.9,3.3,30.50,WNW,287,3.0,5.0,44,0.00,,,0.00,Wunderground v.1.15,2013-02-07 13:30:00,
2013-02-07 09:00:00,22.8,3.1,30.50,NE,36,3.0,3.0,42,0.00,,,0.00,Wunderground v.1.15,2013-02-07 14:00:00,
2013-02-07 09:30:00,24.1,3.2,30.51,WNW,300,4.0,4.0,40,0.00,,,0.00,Wunderground v.1.15,2013-02-07 14:30:00,
2013-02-07 10:00:00,25.6,2.9,30.51,ESE,111,4.0,4.0,37,0.00,,,0.00,Wunderground v.1.15,2013-02-07 15:00:00,
2013-02-07 10:30:00,26.1,2.7,30.51,West,260,3.0,3.0,36,0.00,,,0.00,Wunderground v.1.15,2013-02-07 15:30:00,
2013-02-07 11:00:00,27.8,3.6,30.52,SW,225,3.0,3.0,35,0.00,,,0.00,Wunderground v.1.15,2013-02-07 16:00:00,
2013-02-07 11:30:00,28.8,5.2,30.51,NW,323,3.0,3.0,36,0.00,,,0.00,Wunderground v.1.15,2013-02-07 16:30:00,
2013-02-07 12:00:00,28.9,4.0,30.50,West,266,3.0,4.0,34,0.00,,,0.00,Wunderground v.1.15,2013-02-07 17:00:00,
2013-02-07 12:30:00,29.3,3.7,30.49,WSW,239,3.0,3.0,33,0.00,,,0.00,Wunderground v.1.15,2013-02-07 17:30:00,
2013-02-07 13:00:00,29.4,4.4,30.48,NE,34,2.0,3.0,34,0.00,,,0.00,Wunderground v.1.15,2013-02-07 18:00:00,
2013-02-07 13:30:00,29.7,4.1,30.48,NNW,327,2.0,2.0,33,0.00,,,0.00,Wunderground v.1.15,2013-02-07 18:30:00,
2013-02-07 14:00:00,29.1,4.8,30.47,East,101,2.0,2.0,35,0.00,,,0.00,Wunderground v.1.15,2013-02-07 19:00:00,
2013-02-07 14:30:00,29.2,5.5,30.47,SSW,205,1.0,1.0,36,0.00,,,0.00,Wunderground v.1.15,2013-02-07 19:30:00,
2013-02-07 15:00:00,29.3,3.7,30.47,West,265,1.0,3.0,33,0.00,,,0.00,Wunderground v.1.15,2013-02-07 20:00:00,
2013-02-07 15:30:00,29.6,4.6,30.48,NNE,13,1.0,1.0,34,0.00,,,0.00,Wunderground v.1.15,2013-02-07 20:30:00,
2013-02-07 16:00:00,28.8,4.5,30.47,SSE,166,0.0,0.0,35,0.00,,,0.00,Wunderground v.1.15,2013-02-07 21:00:00,
2013-02-07 16:30:00,28.3,4.1,30.47,ESE,107,1.0,1.0,35,0.00,,,0.00,Wunderground v.1.15,2013-02-07 21:30:00,
2013-02-07 17:00:00,27.6,4.1,30.47,ESE,121,0.0,0.0,36,0.00,,,0.00,Wunderground v.1.15,2013-02-07 22:00:00,
2013-02-07 17:30:00,26.7,3.3,30.48,ESE,122,0.0,0.0,36,0.00,,,0.00,Wunderground v.1.15,2013-02-07 22:30:00,
2013-02-07 18:00:00,26.5,3.1,30.49,SE,137,1.0,1.0,36,0.00,,,0.00,Wunderground v.1.15,2013-02-07 23:00:00,
2013-02-07 18:30:00,26.6,2.0,30.50,SSW,204,1.0,1.0,34,0.00,,,0.00,Wunderground v.1.15,2013-02-07 23:30:00,
2013-02-07 19:00:00,26.6,2.0,30.51,SE,146,0.0,1.0,34,0.00,,,0.00,Wunderground v.1.15,2013-02-08 00:00:00,
2013-02-07 19:30:00,26.4,6.4,30.50,SSE,148,1.0,1.0,42,0.00,,,0.00,Wunderground v.1.15,2013-02-08 00:30:00,
2013-02-07 20:00:00,25.6,6.2,30.50,SSE,163,0.0,0.0,43,0.00,,,0.00,Wunderground v.1.15,2013-02-08 01:00:00,
2013-02-07 20:30:00,25.8,6.9,30.49,SSE,167,0.0,0.0,44,0.00,,,0.00,Wunderground v.1.15,2013-02-08 01:30:00,
2013-02-07 21:00:00,26.1,6.6,30.50,SSE,149,1.0,1.0,43,0.00,,,0.00,Wunderground v.1.15,2013-02-08 02:00:00,
2013-02-07 21:30:00,26.4,7.4,30.50,ESE,110,0.0,0.0,44,0.00,,,0.00,Wunderground v.1.15,2013-02-08 02:30:00,
2013-02-07 22:00:00,27.2,12.7,30.49,ESE,105,1.0,1.0,54,0.00,,,0.00,Wunderground v.1.15,2013-02-08 03:00:00,
2013-02-07 22:30:00,27.4,14.1,30.49,SSE,153,0.0,0.0,57,0.00,,,0.00,Wunderground v.1.15,2013-02-08 03:30:00,
2013-02-07 23:00:00,27.7,14.8,30.48,East,93,1.0,1.0,58,0.00,,,0.00,Wunderground v.1.15,2013-02-08 04:00:00,
2013-02-07 23:30:00,28.2,18.3,30.49,East,86,1.0,1.0,66,0.00,,,0.00,Wunderground v.1.15,2013-02-08 04:30:00,